Weather observations for the past three days for
Oakdale, Allen Parish Airport
Metric (Imperial)
Date Time (cdt) Wind (kph) Vis. (km) Weather Sky Cond. Temperature (ºC) Relative Humidity Wind Chill (°C) Heat Index (°C) Pressure Precipitation (cm)
Air Dwpt 6 hour altimeter (cm) sea level (mb) 1 hr 3 hr 6 hr
Max. Min.
07 16:35 NE 9 16.09 Fair CLR 24 16 61% 25 76.1 0.0
07 16:15 E 9 16.09 Fair CLR 24 16 61% 25 76.1 0.0
07 15:55 NE 11 16.09 Fair CLR 24 16 61% 25 76.12 0.0
07 15:35 N 11 16.09 Fair CLR 25 16 57% 26 76.12 0.0
07 15:15 N 7 16.09 Fair CLR 24 16 61% 25 76.12 0.0
07 14:55 N 9 16.09 Fair CLR 24 16 61% 25 76.12 0.0
07 14:35 NE 13 16.09 Fair CLR 24 16 61% 25 76.15 0.0
07 14:15 N 13 16.09 Fair CLR 23 16 65% 76.15 0.0
07 13:55 N 11 16.09 Fair CLR 22 15 65% 76.17 0.0
07 13:35 N 9 16.09 Partly Cloudy SCT014 21 15 69% 76.17 0.0
07 13:15 N 11 16.09 Overcast OVC014 20 15 73% 76.2 0.0
07 12:55 N 13 16.09 Overcast OVC012 19 14 73% 76.2 0.0
07 12:35 N 17 16.09 Overcast OVC010 18 14 78% 76.23 0.0
07 12:15 N 13 16.09 Overcast OVC010 18 14 78% 76.25 0.0
07 11:55 N 15 16.09 Overcast OVC010 17 14 83% 76.28 0.0
07 11:35 N 7 16.09 Overcast OVC010 18 14 78% 76.23 0.0
07 11:15 NW 9 16.09 Overcast OVC010 17 14 83% 76.25 0.0
07 10:55 N 11 16.09 Overcast OVC008 17 14 83% 76.28 0.0
07 10:35 N 9 16.09 Overcast OVC008 17 14 83% 76.25 0.0
07 10:15 N 7 16.09 Overcast OVC008 17 14 83% 76.25 0.0
07 09:55 N 7 16.09 Overcast OVC006 16 14 88% 76.25 0.0
07 09:35 N 7 16.09 Overcast OVC006 16 13 83% 76.25 0.0
07 09:15 NE 7 16.09 Overcast OVC006 16 13 83% 76.23 0.0
07 08:55 NE 15 16.09 Overcast OVC006 15 13 88% 76.23 0.0
07 08:35 N 7 16.09 Overcast OVC006 16 14 88% 76.23 0.0
07 08:15 N 9 16.09 Overcast OVC006 15 13 88% 76.23 0.0
07 07:55 N 9 16.09 Overcast OVC006 15 13 88% 76.23 0.0
07 07:35 N 7 16.09 Overcast OVC006 15 13 88% 76.17 0.0
07 07:15 NE 6 16.09 Overcast OVC004 15 13 88% 76.15 0.0
07 06:55 Calm 16.09 Overcast OVC004 15 13 88% 76.15 0.0
07 06:35 N 9 16.09 Overcast OVC004 15 13 88% 76.12 0.0
07 06:15 N 7 16.09 Overcast OVC004 15 13 88% 76.12 0.0
07 05:55 N 11 16.09 Overcast OVC006 15 13 88% 76.12 0.0
07 05:35 N 15 16.09 Overcast OVC004 15 13 88% 76.07 0.0
07 05:15 N 13 16.09 Overcast OVC004 15 13 88% 76.1 0.0
07 04:55 N 13 16.09 Overcast OVC004 15 14 94% 76.05 0.0
07 04:35 N 9 11.27 Overcast OVC004 15 14 94% 76.07 0.0
07 04:15 N 19 G 28 11.27 Overcast OVC004 15 14 94% 76.02 0.0
07 03:55 N 15 6.44 Fog/Mist OVC004 16 14 88% 76.02 0.0
07 03:35 N 11 6.44 Fog/Mist OVC004 16 15 94% 76 0.0
07 03:15 NW 15 8.05 Fog/Mist OVC004 17 15 88% 76.02 0.0
07 02:55 N 11 16.09 Overcast OVC006 17 15 88% 76 0.0
07 02:35 N 11 16.09 Overcast OVC006 17 15 88% 76 0.0
07 02:15 N 9 16.09 Overcast OVC006 17 15 88% 76.02 0.0
07 01:55 N 9 16.09 Overcast OVC004 17 16 94% 76 0.0
07 01:35 N 11 11.27 Overcast OVC004 18 16 88% 76 0.0
07 01:15 N 11 16.09 Overcast OVC004 18 17 94% 76 0.0
07 00:55 N 7 16.09 Overcast OVC004 19 17 88% 76 0.0
07 00:35 N 15 11.27 Rain OVC004 19 18 94% 76 0.0
07 00:15 N 11 16.09 Overcast OVC006 20 18 88% 75.97 0.0
06 23:55 N 13 16.09 Overcast OVC006 21 19 88% 75.95 0.0
06 23:35 N 13 16.09 Overcast OVC006 21 20 94% 75.92 0.0
06 23:15 N 9 16.09 Overcast OVC006 22 20 88% 75.92 0.0
06 22:55 Calm 11.27 Overcast OVC008 25 24 94% 26 75.87 0.0
06 22:35 Calm 11.27 Overcast BKN010 BKN023 OVC050 25 23 89% 26 75.87 0.0
06 22:15 Calm 11.27 Overcast BKN010 BKN027 OVC050 25 24 94% 26 75.84 0.0
06 21:55 Calm 11.27 Overcast OVC012 26 24 89% 28 75.84 0.0
06 21:35 Calm 11.27 Overcast BKN012 BKN017 OVC035 26 24 89% 28 75.82 0.0
06 21:15 S 6 11.27 Overcast SCT013 BKN023 OVC037 26 24 89% 28 75.79 0.0
06 20:55 Calm 16.09 Overcast SCT013 BKN024 OVC065 26 24 89% 28 75.77 0.0
06 20:35 SW 6 16.09 Overcast SCT015 BKN047 OVC100 26 24 89% 28 75.74 0.0
06 20:15 S 9 16.09 Light Drizzle BKN015 BKN026 OVC034 26 24 89% 28 75.74 0.0
06 19:55 S 7 16.09 Overcast BKN014 BKN020 OVC032 27 24 84% 30 75.72 0.0
06 19:35 Calm 16.09 Overcast SCT016 BKN022 OVC044 27 24 84% 30 75.69 0.0
06 19:15 S 7 16.09 Partly Cloudy SCT043 27 23 79% 30 75.69 0.0
06 18:55 S 7 16.09 Partly Cloudy SCT017 28 23 74% 31 75.67 0.0
06 18:35 S 13 16.09 Partly Cloudy SCT020 SCT032 SCT090 28 23 74% 31 75.67 0.0
06 18:15 S 11 16.09 Partly Cloudy SCT022 SCT032 SCT090 28 23 74% 31 75.67 0.0
06 17:55 S 9 16.09 Partly Cloudy SCT022 SCT030 SCT090 29 23 70% 33 75.64 0.0
06 17:35 S 7 16.09 Mostly Cloudy SCT002 SCT023 BKN029 29 23 70% 33 75.67 0.0
06 17:15 S 15 16.09 Overcast SCT022 BKN030 OVC036 29 23 70% 33 75.67 0.0
06 16:55 S 13 16.09 Overcast BKN022 OVC031 29 23 70% 33 75.69 0.0
06 16:35 S 15 G 26 16.09 Mostly Cloudy BKN024 BKN100 29 23 70% 33 75.69 0.0
06 16:15 S 17 G 26 16.09 Partly Cloudy SCT100 29 23 70% 33 75.69 0.0
06 15:55 S 15 G 28 16.09 Partly Cloudy SCT100 30 23 66% 34 75.69 0.0
06 15:35 S 17 G 30 16.09 Fair CLR 30 23 66% 34 75.69 0.0
06 15:15 S 9 16.09 Partly Cloudy SCT048 SCT080 29 23 70% 33 75.74 0.0
06 14:55 S 11 16.09 Mostly Cloudy SCT006 SCT029 BKN080 28 23 74% 31 75.77 0.0
06 14:35 S 11 16.09 Mostly Cloudy SCT021 BKN027 BKN033 29 23 70% 33 75.79 0.0
06 14:15 S 13 16.09 Overcast BKN019 OVC026 28 23 74% 31 75.79 0.0
06 13:55 SE 13 16.09 Overcast BKN017 BKN022 OVC027 29 23 70% 33 75.79 0.0
06 13:35 S 13 16.09 Overcast BKN015 OVC020 29 23 70% 33 75.84 0.0
06 13:15 S 9 16.09 Overcast BKN015 OVC020 28 23 74% 31 75.9 0.0
06 12:55 S 13 16.09 Overcast SCT013 BKN022 OVC028 28 23 74% 31 75.9 0.0
06 12:35 S 9 16.09 Overcast BKN011 BKN018 OVC029 27 23 79% 30 75.92 0.0
06 12:15 S 7 16.09 Overcast BKN011 OVC020 27 23 79% 30 75.95 0.0
06 11:55 E 6 16.09 Overcast BKN013 OVC018 26 23 84% 28 75.95 0.0
06 11:35 Calm 16.09 Overcast OVC013 25 23 89% 26 75.95 0.0
06 11:15 E 6 16.09 Overcast OVC011 25 23 89% 26 75.95 0.0
06 10:55 Calm 16.09 Overcast OVC011 25 23 89% 26 75.95 0.0
06 10:35 Calm 11.27 Overcast SCT011 BKN017 OVC034 25 23 89% 26 75.92 0.0
06 10:15 Calm 16.09 Overcast SCT015 SCT019 OVC035 25 23 89% 26 75.92 0.0
06 09:55 Calm 16.09 Overcast SCT015 SCT021 OVC033 25 22 83% 26 75.9 0.0
06 09:35 Calm 16.09 Overcast SCT014 BKN027 OVC033 25 22 83% 26 75.9 0.0
06 09:15 Calm 16.09 Overcast BKN010 BKN014 OVC021 24 22 89% 24 75.9 0.0
06 08:55 Calm 11.27 Overcast OVC008 24 22 89% 24 75.9 0.0
06 08:35 Calm 16.09 Overcast OVC008 24 22 89% 24 75.9 0.0
06 08:15 Calm 16.09 Overcast OVC008 24 22 89% 24 75.9 0.0
06 07:55 Calm 16.09 Overcast OVC006 24 22 89% 24 75.87 0.0
06 07:35 Calm 16.09 Overcast OVC006 24 22 89% 24 75.84 0.0
06 07:15 Calm 16.09 Overcast OVC006 24 22 89% 24 75.82 0.0
06 06:55 Calm 16.09 Overcast OVC006 24 22 89% 24 75.82 0.0
06 06:35 Calm 16.09 Overcast OVC008 24 22 89% 24 75.82 0.0
06 06:15 Calm 16.09 Overcast OVC008 23 21 89% 75.79 0.0
06 05:55 Calm 16.09 Overcast OVC008 23 21 89% 75.79 0.0
06 05:35 S 6 16.09 Overcast OVC008 23 21 89% 75.77 0.0
06 05:15 SE 6 16.09 Overcast OVC008 23 21 89% 75.77 0.0
06 04:55 Calm 16.09 Overcast OVC008 23 21 89% 75.77 0.0
06 04:35 Calm 16.09 Overcast OVC008 23 21 89% 75.77 0.0
06 04:15 Calm 16.09 Overcast OVC008 23 21 89% 75.79 0.0
06 03:55 Calm 16.09 Overcast BKN008 OVC013 23 21 89% 75.79 0.0
06 03:35 Calm 16.09 Overcast BKN010 OVC017 23 21 89% 75.79 0.0
06 03:15 Calm 16.09 Overcast BKN015 OVC023 23 21 89% 75.82 0.0
06 02:55 Calm 16.09 Overcast BKN017 OVC023 23 21 89% 75.82 0.0
06 02:35 Calm 16.09 Overcast SCT011 BKN018 OVC044 23 21 89% 75.79 0.0
06 02:15 Calm 16.09 Overcast BKN013 OVC019 23 21 89% 75.82 0.0
06 01:55 Calm 16.09 Overcast BKN011 BKN016 OVC027 23 21 89% 75.82 0.0
06 01:35 Calm 16.09 Overcast BKN011 BKN017 OVC029 24 21 83% 24 75.82 0.0
06 01:15 Calm 16.09 Overcast BKN011 OVC022 24 21 83% 24 75.84 0.0
06 00:55 S 6 16.09 Overcast BKN011 BKN019 OVC024 24 21 83% 24 75.82 0.0
06 00:35 S 7 16.09 Overcast BKN011 BKN017 OVC022 24 21 83% 24 75.82 0.0
06 00:15 S 7 16.09 Overcast SCT011 SCT018 OVC022 24 21 83% 24 75.84 0.0
05 23:55 S 9 16.09 Overcast SCT013 OVC022 24 21 83% 24 75.84 0.0
05 23:35 S 7 16.09 Overcast BKN013 OVC022 24 21 83% 24 75.84 0.0
05 23:15 S 7 16.09 Overcast BKN013 BKN018 OVC023 24 21 83% 24 75.84 0.0
05 22:55 S 7 16.09 Overcast SCT013 OVC021 24 21 83% 24 75.82 0.0
05 22:35 S 7 16.09 Overcast SCT014 OVC023 24 21 83% 24 75.82 0.0
05 22:15 S 6 16.09 Overcast BKN014 OVC021 24 21 83% 24 75.79 0.0
05 21:55 S 9 16.09 Overcast BKN017 BKN022 OVC050 25 21 79% 26 75.77 0.0
05 21:35 S 7 16.09 Overcast BKN017 OVC048 25 21 79% 26 75.77 0.0
05 21:15 S 9 16.09 Overcast SCT017 SCT040 OVC048 25 21 79% 26 75.74 0.0
05 20:55 S 11 16.09 Overcast SCT017 SCT040 OVC048 25 21 79% 26 75.72 0.0
05 20:35 S 7 16.09 Overcast BKN017 OVC048 25 21 79% 26 75.72 0.0
05 20:15 S 9 16.09 Overcast BKN017 BKN024 OVC048 25 21 79% 26 75.72 0.0
05 19:55 S 9 16.09 Overcast SCT019 BKN024 OVC050 25 21 79% 26 75.69 0.0
05 19:35 S 11 16.09 Overcast SCT018 SCT023 OVC050 25 21 79% 26 75.67 0.0
05 19:15 S 11 16.09 Overcast BKN018 BKN023 OVC050 25 21 79% 26 75.67 0.0
05 18:55 S 7 16.09 Overcast BKN020 BKN024 OVC050 25 21 79% 26 75.69 0.0
05 18:35 S 9 16.09 Overcast OVC021 26 21 74% 27 75.69 0.0
05 18:15 S 15 16.09 Overcast BKN019 BKN027 OVC033 26 21 74% 27 75.69 0.0
05 17:55 S 13 16.09 Overcast BKN019 OVC034 26 21 74% 27 75.67 0.0
05 17:35 S 11 16.09 Overcast SCT021 BKN027 OVC040 26 21 74% 27 75.69 0.0
05 17:15 S 11 16.09 Overcast BKN023 BKN032 OVC038 26 21 74% 27 75.69 0.0
05 16:55 S 11 16.09 Overcast BKN023 OVC031 26 21 74% 27 75.72 0.0
05 16:35 S 9 16.09 Overcast BKN023 OVC034 26 21 74% 27 75.72 0.0
05 16:15 S 7 16.09 Overcast BKN025 BKN034 OVC044 26 21 74% 27 75.74 0.0
05 15:55 S 9 16.09 Overcast SCT024 BKN029 OVC042 26 21 74% 27 75.74 0.0
05 15:35 S 11 16.09 Overcast BKN028 OVC036 26 21 74% 27 75.74 0.0
05 15:15 S 13 16.09 Overcast SCT026 BKN032 OVC046 26 21 74% 27 75.77 0.0
05 14:55 S 19 G 28 16.09 Overcast SCT032 BKN037 OVC050 26 21 74% 27 75.77 0.0
05 14:35 S 13 16.09 Overcast SCT024 BKN030 OVC050 27 21 70% 29 75.79 0.0
05 14:15 S 17 16.09 Overcast SCT026 BKN033 OVC041 27 20 66% 29 75.77 0.0
05 13:55 S 22 16.09 Overcast SCT023 BKN034 OVC050 27 21 70% 29 75.79 0.0
05 13:35 S 9 16.09 Overcast SCT024 BKN033 OVC040 26 21 74% 27 75.79 0.0
05 13:15 S 7 16.09 Overcast SCT026 BKN042 OVC048 27 21 70% 29 75.82 0.0
05 12:55 S 11 16.09 Overcast BKN028 OVC035 26 20 70% 27 75.82 0.0
05 12:35 S 7 16.09 Overcast SCT024 OVC031 26 20 70% 27 75.84 0.0
05 12:15 S 11 16.09 Overcast SCT024 BKN030 OVC038 26 20 70% 27 75.82 0.0
05 11:55 S 19 G 30 16.09 Overcast SCT024 BKN030 OVC038 26 20 70% 27 75.82 0.0
05 11:35 S 11 16.09 Overcast BKN022 OVC032 26 20 70% 27 75.82 0.0
05 11:15 S 17 16.09 Overcast SCT020 BKN027 OVC032 26 20 70% 27 75.82 0.0
05 10:55 S 9 16.09 Overcast BKN020 BKN027 OVC032 25 20 74% 26 75.84 0.0
05 10:35 S 13 16.09 Overcast SCT018 SCT024 OVC034 25 19 69% 26 75.84 0.0
05 10:15 S 15 16.09 Overcast SCT020 BKN028 OVC034 25 19 69% 26 75.84 0.0
05 09:55 S 11 16.09 Overcast OVC020 24 19 74% 25 75.84 0.0
05 09:35 S 15 G 26 16.09 Mostly Cloudy SCT020 BKN024 BKN036 25 19 69% 26 75.84 0.0
05 09:15 S 15 G 26 16.09 Mostly Cloudy SCT033 BKN039 BKN049 24 19 74% 25 75.84 0.0
05 08:55 S 11 16.09 Mostly Cloudy BKN037 24 19 74% 25 75.84 0.0
05 08:35 S 9 16.09 Overcast OVC035 22 18 78% 75.82 0.0
05 08:15 S 6 16.09 Overcast OVC035 22 18 78% 75.82 0.0
05 07:55 Calm 16.09 Overcast OVC035 21 18 83% 75.84 0.0
05 07:35 S 6 16.09 Overcast BKN030 OVC036 21 17 78% 75.82 0.0
05 07:15 Calm 16.09 Overcast OVC032 20 17 83% 75.82 0.0
05 06:55 SE 7 16.09 Overcast OVC034 20 17 83% 75.79 0.0
05 06:35 S 7 16.09 Overcast OVC034 20 17 83% 75.79 0.0
05 06:15 SE 7 16.09 Overcast OVC036 20 17 83% 75.79 0.0
05 05:55 SE 7 16.09 Overcast OVC036 20 16 78% 75.79 0.0
05 05:35 S 6 16.09 Overcast SCT030 OVC036 19 16 83% 75.82 0.0
05 05:15 Calm 16.09 Overcast OVC036 19 16 83% 75.82 0.0
05 04:55 Calm 11.27 Mostly Cloudy BKN034 18 16 88% 75.82 0.0
05 04:35 Calm 16.09 Mostly Cloudy BKN032 18 16 88% 75.82 0.0
05 04:15 Calm 16.09 Mostly Cloudy BKN032 18 15 83% 75.82 0.0
05 03:55 Calm 16.09 Partly Cloudy SCT030 18 15 83% 75.84 0.0
05 03:35 Calm 16.09 Partly Cloudy SCT030 SCT036 17 15 88% 75.84 0.0
05 03:15 Calm 16.09 Partly Cloudy SCT029 SCT037 17 15 88% 75.84 0.0
05 02:55 Calm 16.09 Fair CLR 17 15 88% 75.82 0.0
05 02:35 Calm 16.09 Fair CLR 18 15 83% 75.84 0.0
05 02:15 Calm 16.09 Fair CLR 17 15 88% 75.84 0.0
05 01:55 Calm 16.09 Partly Cloudy SCT033 17 14 83% 75.87 0.0
05 01:35 Calm 16.09 Partly Cloudy SCT033 17 14 83% 75.9 0.0
05 01:15 Calm 16.09 Fair CLR 18 14 78% 75.9 0.0
05 00:55 SE 6 16.09 Fair CLR 18 14 78% 75.9 0.0
05 00:35 Calm 16.09 Fair CLR 18 14 78% 75.92 0.0
05 00:15 Calm 16.09 Fair CLR 18 14 78% 75.95 0.0
04 23:55 S 6 16.09 Fair CLR 19 14 73% 75.95 0.0
04 23:35 Calm 16.09 Fair CLR 19 14 73% 75.97 0.0
04 23:15 Calm 16.09 Fair CLR 19 14 73% 75.97 0.0
04 22:55 SE 6 16.09 Fair CLR 19 14 73% 75.97 0.0
04 22:35 S 6 16.09 Fair CLR 19 14 73% 75.97 0.0
04 22:15 Calm 16.09 Fair CLR 19 14 73% 75.97 0.0
04 21:55 Calm 16.09 Fair CLR 20 14 69% 75.95 0.0
04 21:35 Calm 16.09 Fair CLR 20 14 69% 75.95 0.0
04 21:15 S 6 16.09 Fair CLR 20 14 69% 75.92 0.0
04 20:55 Calm 16.09 Fair CLR 20 15 73% 75.9 0.0
04 20:35 S 6 16.09 Fair CLR 21 15 69% 75.9 0.0
04 20:15 S 7 16.09 Fair CLR 21 15 69% 75.9 0.0
04 19:55 Calm 16.09 Fair CLR 22 15 65% 75.9 0.0
04 19:35 S 6 16.09 Fair CLR 22 15 65% 75.92 0.0
04 19:15 S 7 16.09 Partly Cloudy SCT044 23 15 61% 75.92 0.0
04 18:55 S 7 16.09 Partly Cloudy SCT044 23 14 57% 75.92 0.0
04 18:35 S 7 16.09 Fair CLR 24 14 54% 25 75.95 0.0
04 18:15 S 7 16.09 Fair CLR 25 14 51% 26 75.95 0.0
04 17:55 S 15 16.09 Partly Cloudy SCT043 SCT060 25 14 51% 26 75.97 0.0
04 17:35 S 11 16.09 Partly Cloudy SCT060 25 14 51% 26 76 0.0
04 17:15 S 13 16.09 Partly Cloudy SCT060 25 14 51% 26 76 0.0
04 16:55 S 9 16.09 Partly Cloudy SCT046 SCT060 25 14 51% 26 76.02 0.0
Date Time (cdt) Wind (kph) Vis. (km) Weather Sky Cond. Air Dwpt Max. Min. Relative Humidity Wind Chill (°C) Heat Index (°C) altimeter (cm) sea level (mb) 1 hr 3 hr 6 hr
6 hour
Temperature (ºC) Pressure Precipitation (cm)